sensor_id;sensor_type;location;lat;lon;timestamp;temperature;humidity
1992;DHT22;997;48.448;8.924;2023-02-10T04:03:20;-2.00;99.90
1992;DHT22;997;48.448;8.924;2023-02-10T04:05:46;-2.00;99.90
1992;DHT22;997;48.448;8.924;2023-02-10T04:08:11;-2.10;99.90
1992;DHT22;997;48.448;8.924;2023-02-10T04:10:37;-2.20;99.90
1992;DHT22;997;48.448;8.924;2023-02-10T04:13:07;-2.30;99.90
1992;DHT22;997;48.448;8.924;2023-02-10T04:15:59;-2.30;99.90
1992;DHT22;997;48.448;8.924;2023-02-10T04:18:25;-2.30;99.90
1992;DHT22;997;48.448;8.924;2023-02-10T04:20:51;-2.30;99.90
1992;DHT22;997;48.448;8.924;2023-02-10T04:23:16;-2.40;99.90
1992;DHT22;997;48.448;8.924;2023-02-10T04:25:42;-2.40;99.90
1992;DHT22;997;48.448;8.924;2023-02-10T04:28:08;-2.30;99.90
1992;DHT22;997;48.448;8.924;2023-02-10T04:30:33;-2.30;99.90
1992;DHT22;997;48.448;8.924;2023-02-10T04:32:59;-2.30;99.90
1992;DHT22;997;48.448;8.924;2023-02-10T04:35:25;-2.30;99.90
1992;DHT22;997;48.448;8.924;2023-02-10T04:37:50;-2.30;99.90
1992;DHT22;997;48.448;8.924;2023-02-10T04:40:16;-2.30;99.90
1992;DHT22;997;48.448;8.924;2023-02-10T04:42:41;-2.30;99.90
1992;DHT22;997;48.448;8.924;2023-02-10T04:45:07;-2.40;99.90
1992;DHT22;997;48.448;8.924;2023-02-10T04:47:33;-2.50;99.90
1992;DHT22;997;48.448;8.924;2023-02-10T04:49:59;-2.50;99.90
1992;DHT22;997;48.448;8.924;2023-02-10T04:52:24;-2.50;99.90
1992;DHT22;997;48.448;8.924;2023-02-10T04:54:50;-2.50;99.90
1992;DHT22;997;48.448;8.924;2023-02-10T04:57:16;-2.50;99.90
1992;DHT22;997;48.448;8.924;2023-02-10T04:59:41;-2.60;99.90
1992;DHT22;997;48.448;8.924;2023-02-10T05:02:07;-2.60;99.90
1992;DHT22;997;48.448;8.924;2023-02-10T05:04:33;-2.60;99.90
1992;DHT22;997;48.448;8.924;2023-02-10T05:06:59;-2.70;99.90
1992;DHT22;997;48.448;8.924;2023-02-10T05:09:25;-2.70;99.90
1992;DHT22;997;48.448;8.924;2023-02-10T05:11:52;-2.70;99.90
1992;DHT22;997;48.448;8.924;2023-02-10T05:14:18;-2.70;99.90
1992;DHT22;997;48.448;8.924;2023-02-10T05:16:44;-2.60;99.90
1992;DHT22;997;48.448;8.924;2023-02-10T05:19:09;-2.60;99.90
1992;DHT22;997;48.448;8.924;2023-02-10T05:21:36;-2.50;99.90
1992;DHT22;997;48.448;8.924;2023-02-10T05:24:01;-2.50;99.90
1992;DHT22;997;48.448;8.924;2023-02-10T05:26:27;-2.50;99.90
1992;DHT22;997;48.448;8.924;2023-02-10T05:28:53;-2.40;99.90
1992;DHT22;997;48.448;8.924;2023-02-10T05:31:19;-2.40;99.90
1992;DHT22;997;48.448;8.924;2023-02-10T05:33:44;-2.40;99.90
1992;DHT22;997;48.448;8.924;2023-02-10T05:36:10;-2.30;99.90
1992;DHT22;997;48.448;8.924;2023-02-10T05:38:36;-2.30;99.90
1992;DHT22;997;48.448;8.924;2023-02-10T05:41:02;-2.30;99.90
1992;DHT22;997;48.448;8.924;2023-02-10T05:43:28;-2.30;99.90
1992;DHT22;997;48.448;8.924;2023-02-10T05:45:53;-2.30;99.90
1992;DHT22;997;48.448;8.924;2023-02-10T05:48:19;-2.20;99.90
1992;DHT22;997;48.448;8.924;2023-02-10T05:50:49;-2.20;99.90
1992;DHT22;997;48.448;8.924;2023-02-10T05:53:15;-2.20;99.90
1992;DHT22;997;48.448;8.924;2023-02-10T05:55:41;-2.20;99.90
1992;DHT22;997;48.448;8.924;2023-02-10T05:58:06;-2.30;99.90
1992;DHT22;997;48.448;8.924;2023-02-10T06:00:32;-2.30;99.90
1992;DHT22;997;48.448;8.924;2023-02-10T06:02:58;-2.30;99.90
1992;DHT22;997;48.448;8.924;2023-02-10T06:05:23;-2.40;99.90
1992;DHT22;997;48.448;8.924;2023-02-10T06:07:49;-2.40;99.90
1992;DHT22;997;48.448;8.924;2023-02-10T06:10:15;-2.40;99.90
1992;DHT22;997;48.448;8.924;2023-02-10T06:12:40;-2.40;99.90
1992;DHT22;997;48.448;8.924;2023-02-10T06:15:06;-2.40;99.90
1992;DHT22;997;48.448;8.924;2023-02-10T06:17:32;-2.40;99.90
1992;DHT22;997;48.448;8.924;2023-02-10T06:19:58;-2.40;99.90
1992;DHT22;997;48.448;8.924;2023-02-10T06:22:24;-2.40;99.90
1992;DHT22;997;48.448;8.924;2023-02-10T06:24:49;-2.40;99.90
1992;DHT22;997;48.448;8.924;2023-02-10T06:27:15;-2.40;99.90
1992;DHT22;997;48.448;8.924;2023-02-10T06:29:42;-2.40;99.90
1992;DHT22;997;48.448;8.924;2023-02-10T06:32:08;-2.50;99.90
1992;DHT22;997;48.448;8.924;2023-02-10T06:34:33;-2.50;99.90
1992;DHT22;997;48.448;8.924;2023-02-10T06:36:59;-2.50;99.90
1992;DHT22;997;48.448;8.924;2023-02-10T06:39:25;-2.40;99.90
1992;DHT22;997;48.448;8.924;2023-02-10T06:41:50;-2.40;99.90
1992;DHT22;997;48.448;8.924;2023-02-10T06:44:16;-2.40;99.90
1992;DHT22;997;48.448;8.924;2023-02-10T06:46:42;-2.40;99.90
1992;DHT22;997;48.448;8.924;2023-02-10T06:49:07;-2.40;99.90
1992;DHT22;997;48.448;8.924;2023-02-10T06:51:33;-2.30;99.90
1992;DHT22;997;48.448;8.924;2023-02-10T06:53:59;-2.40;99.90
1992;DHT22;997;48.448;8.924;2023-02-10T06:56:24;-2.40;99.90
1992;DHT22;997;48.448;8.924;2023-02-10T06:58:50;-2.50;99.90
1992;DHT22;997;48.448;8.924;2023-02-10T07:01:17;-2.40;99.90
1992;DHT22;997;48.448;8.924;2023-02-10T07:03:43;-2.50;99.90
1992;DHT22;997;48.448;8.924;2023-02-10T07:06:09;-2.50;99.90
1992;DHT22;997;48.448;8.924;2023-02-10T07:08:35;-2.60;99.90
1992;DHT22;997;48.448;8.924;2023-02-10T07:11:01;-2.60;99.90
1992;DHT22;997;48.448;8.924;2023-02-10T07:13:27;-2.60;99.90
1992;DHT22;997;48.448;8.924;2023-02-10T07:15:52;-2.60;99.90
1992;DHT22;997;48.448;8.924;2023-02-10T07:18:18;-2.70;99.90
1992;DHT22;997;48.448;8.924;2023-02-10T07:20:44;-2.70;99.90
1992;DHT22;997;48.448;8.924;2023-02-10T07:23:09;-2.90;99.90
1992;DHT22;997;48.448;8.924;2023-02-10T07:25:35;-2.90;99.90
1992;DHT22;997;48.448;8.924;2023-02-10T07:28:01;-3.00;99.90
1992;DHT22;997;48.448;8.924;2023-02-10T07:30:26;-3.10;99.90
1992;DHT22;997;48.448;8.924;2023-02-10T07:32:52;-3.10;99.90
1992;DHT22;997;48.448;8.924;2023-02-10T07:35:18;-3.20;99.90
1992;DHT22;997;48.448;8.924;2023-02-10T07:37:43;-3.30;99.90
1992;DHT22;997;48.448;8.924;2023-02-10T07:40:10;-3.30;99.90
1992;DHT22;997;48.448;8.924;2023-02-10T07:42:35;-3.30;99.90
1992;DHT22;997;48.448;8.924;2023-02-10T07:45:02;-3.40;99.90
1992;DHT22;997;48.448;8.924;2023-02-10T07:47:28;-3.40;99.90
1992;DHT22;997;48.448;8.924;2023-02-10T07:49:53;-3.40;99.90
1992;DHT22;997;48.448;8.924;2023-02-10T07:52:20;-3.40;99.90
1992;DHT22;997;48.448;8.924;2023-02-10T07:54:47;-3.30;99.90
1992;DHT22;997;48.448;8.924;2023-02-10T07:57:12;-3.30;99.90
1992;DHT22;997;48.448;8.924;2023-02-10T07:59:38;-3.30;99.90
1992;DHT22;997;48.448;8.924;2023-02-10T08:02:04;-3.10;99.90
1992;DHT22;997;48.448;8.924;2023-02-10T08:04:31;-3.00;99.90
1992;DHT22;997;48.448;8.924;2023-02-10T08:06:57;-2.90;99.90
1992;DHT22;997;48.448;8.924;2023-02-10T08:09:23;-2.70;99.90
1992;DHT22;997;48.448;8.924;2023-02-10T08:11:48;-2.60;99.90
1992;DHT22;997;48.448;8.924;2023-02-10T08:14:14;-2.50;99.90
1992;DHT22;997;48.448;8.924;2023-02-10T08:16:40;-2.40;99.90
1992;DHT22;997;48.448;8.924;2023-02-10T08:19:05;-2.30;99.90
1992;DHT22;997;48.448;8.924;2023-02-10T08:21:31;-2.20;99.90
1992;DHT22;997;48.448;8.924;2023-02-10T08:26:32;-2.10;99.90
1992;DHT22;997;48.448;8.924;2023-02-10T08:28:58;-1.90;99.90
1992;DHT22;997;48.448;8.924;2023-02-10T08:31:25;-1.80;99.90
1992;DHT22;997;48.448;8.924;2023-02-10T08:33:50;-1.70;99.90
1992;DHT22;997;48.448;8.924;2023-02-10T08:36:18;-1.50;99.90
1992;DHT22;997;48.448;8.924;2023-02-10T08:38:44;-1.50;99.90
1992;DHT22;997;48.448;8.924;2023-02-10T08:41:11;-1.30;99.90
1992;DHT22;997;48.448;8.924;2023-02-10T08:43:36;-1.20;99.90
1992;DHT22;997;48.448;8.924;2023-02-10T08:46:03;-1.20;99.90
1992;DHT22;997;48.448;8.924;2023-02-10T08:48:30;-1.20;99.90
1992;DHT22;997;48.448;8.924;2023-02-10T08:50:57;-1.10;99.90
1992;DHT22;997;48.448;8.924;2023-02-10T08:53:23;-1.00;99.90
1992;DHT22;997;48.448;8.924;2023-02-10T08:56:18;-1.00;99.90
1992;DHT22;997;48.448;8.924;2023-02-10T08:58:45;-0.70;99.90
1992;DHT22;997;48.448;8.924;2023-02-10T09:01:14;-0.60;99.90
1992;DHT22;997;48.448;8.924;2023-02-10T09:03:40;-0.50;99.90
1992;DHT22;997;48.448;8.924;2023-02-10T09:06:12;-0.40;99.90
1992;DHT22;997;48.448;8.924;2023-02-10T09:08:40;-0.10;99.90
1992;DHT22;997;48.448;8.924;2023-02-10T09:11:07;0.00;99.90
1992;DHT22;997;48.448;8.924;2023-02-10T09:13:33;0.10;99.90
1992;DHT22;997;48.448;8.924;2023-02-10T09:15:59;0.20;99.90
1992;DHT22;997;48.448;8.924;2023-02-10T09:18:25;0.30;99.90
1992;DHT22;997;48.448;8.924;2023-02-10T09:20:50;0.50;99.90
1992;DHT22;997;48.448;8.924;2023-02-10T09:23:16;0.60;99.90
1992;DHT22;997;48.448;8.924;2023-02-10T09:25:41;0.70;99.90
1992;DHT22;997;48.448;8.924;2023-02-10T09:28:07;0.80;99.90
1992;DHT22;997;48.448;8.924;2023-02-10T09:30:34;0.80;99.90
1992;DHT22;997;48.448;8.924;2023-02-10T09:33:00;1.00;99.90
1992;DHT22;997;48.448;8.924;2023-02-10T09:35:26;1.10;99.90
1992;DHT22;997;48.448;8.924;2023-02-10T09:37:51;1.30;99.90
1992;DHT22;997;48.448;8.924;2023-02-10T09:40:22;1.30;99.90
1992;DHT22;997;48.448;8.924;2023-02-10T09:43:21;1.40;99.90
1992;DHT22;997;48.448;8.924;2023-02-10T09:45:53;1.40;99.90
1992;DHT22;997;48.448;8.924;2023-02-10T09:51:42;1.60;99.90
1992;DHT22;997;48.448;8.924;2023-02-10T09:54:10;1.70;99.90
1992;DHT22;997;48.448;8.924;2023-02-10T09:56:37;1.90;99.90
1992;DHT22;997;48.448;8.924;2023-02-10T09:59:03;1.90;99.90
1992;DHT22;997;48.448;8.924;2023-02-10T10:01:35;2.00;99.90
1992;DHT22;997;48.448;8.924;2023-02-10T10:04:16;2.10;99.90
1992;DHT22;997;48.448;8.924;2023-02-10T10:06:48;2.30;99.90
1992;DHT22;997;48.448;8.924;2023-02-10T10:12:01;2.60;99.90
1992;DHT22;997;48.448;8.924;2023-02-10T10:14:38;2.70;99.90
1992;DHT22;997;48.448;8.924;2023-02-10T10:29:24;2.90;99.90
1992;DHT22;997;48.448;8.924;2023-02-10T10:32:01;3.10;99.90
1992;DHT22;997;48.448;8.924;2023-02-10T10:34:32;3.20;99.90
1992;DHT22;997;48.448;8.924;2023-02-10T10:37:11;3.30;99.90
1992;DHT22;997;48.448;8.924;2023-02-10T10:39:43;3.50;99.90
1992;DHT22;997;48.448;8.924;2023-02-10T10:44:58;3.70;99.90
1992;DHT22;997;48.448;8.924;2023-02-10T10:47:36;3.90;99.90
1992;DHT22;997;48.448;8.924;2023-02-10T10:50:05;3.90;99.90
1992;DHT22;997;48.448;8.924;2023-02-10T10:52:34;4.10;99.90
1992;DHT22;997;48.448;8.924;2023-02-10T10:55:06;4.20;99.90
1992;DHT22;997;48.448;8.924;2023-02-10T10:57:34;4.30;99.90
1992;DHT22;997;48.448;8.924;2023-02-10T11:00:17;4.40;99.90
1992;DHT22;997;48.448;8.924;2023-02-10T11:05:22;4.30;99.90
1992;DHT22;997;48.448;8.924;2023-02-10T11:07:51;4.50;99.90
1992;DHT22;997;48.448;8.924;2023-02-10T11:10:47;4.50;99.90
1992;DHT22;997;48.448;8.924;2023-02-10T11:13:20;4.50;99.90
1992;DHT22;997;48.448;8.924;2023-02-10T11:15:47;4.40;99.90
1992;DHT22;997;48.448;8.924;2023-02-10T11:18:22;4.40;99.90
1992;DHT22;997;48.448;8.924;2023-02-10T11:21:05;4.50;99.90
1992;DHT22;997;48.448;8.924;2023-02-10T11:28:42;5.00;99.90
1992;DHT22;997;48.448;8.924;2023-02-10T11:33:43;5.40;99.90
1992;DHT22;997;48.448;8.924;2023-02-10T11:36:35;5.50;99.90
1992;DHT22;997;48.448;8.924;2023-02-10T11:39:04;5.60;99.90
1992;DHT22;997;48.448;8.924;2023-02-10T11:41:31;5.50;99.90
1992;DHT22;997;48.448;8.924;2023-02-10T11:43:57;5.50;99.90
1992;DHT22;997;48.448;8.924;2023-02-10T11:46:25;5.50;99.90
1992;DHT22;997;48.448;8.924;2023-02-10T11:48:57;5.60;99.90
1992;DHT22;997;48.448;8.924;2023-02-10T11:51:24;5.70;99.90
1992;DHT22;997;48.448;8.924;2023-02-10T11:53:50;5.80;99.90
1992;DHT22;997;48.448;8.924;2023-02-10T11:56:24;5.90;99.90
1992;DHT22;997;48.448;8.924;2023-02-10T12:01:49;5.70;99.90
1992;DHT22;997;48.448;8.924;2023-02-10T12:04:36;5.70;99.90
1992;DHT22;997;48.448;8.924;2023-02-10T12:29:02;5.40;99.90
1992;DHT22;997;48.448;8.924;2023-02-10T12:35:00;5.60;99.90
1992;DHT22;997;48.448;8.924;2023-02-10T12:41:16;5.50;99.90
1992;DHT22;997;48.448;8.924;2023-02-10T12:52:30;5.90;99.90
1992;DHT22;997;48.448;8.924;2023-02-10T13:02:50;5.60;99.90
1992;DHT22;997;48.448;8.924;2023-02-10T13:05:25;5.80;99.90
1992;DHT22;997;48.448;8.924;2023-02-10T13:07:56;5.90;99.90
1992;DHT22;997;48.448;8.924;2023-02-10T13:10:38;6.00;99.90
1992;DHT22;997;48.448;8.924;2023-02-10T13:13:12;6.00;99.90
1992;DHT22;997;48.448;8.924;2023-02-10T13:15:45;6.10;99.90
1992;DHT22;997;48.448;8.924;2023-02-10T13:18:19;6.10;99.90
1992;DHT22;997;48.448;8.924;2023-02-10T13:20:58;6.10;99.90
1992;DHT22;997;48.448;8.924;2023-02-10T13:23:37;6.10;99.90
1992;DHT22;997;48.448;8.924;2023-02-10T13:26:29;6.30;99.90
1992;DHT22;997;48.448;8.924;2023-02-10T13:34:23;6.30;99.90
1992;DHT22;997;48.448;8.924;2023-02-10T13:37:07;6.20;99.90
1992;DHT22;997;48.448;8.924;2023-02-10T13:39:35;6.10;99.90
1992;DHT22;997;48.448;8.924;2023-02-10T13:44:58;6.30;99.90
1992;DHT22;997;48.448;8.924;2023-02-10T13:47:41;6.30;99.90
1992;DHT22;997;48.448;8.924;2023-02-10T13:50:20;6.30;99.90
1992;DHT22;997;48.448;8.924;2023-02-10T13:53:04;6.60;99.90
1992;DHT22;997;48.448;8.924;2023-02-10T13:58:27;6.80;99.90
1992;DHT22;997;48.448;8.924;2023-02-10T14:00:55;6.90;99.50
1992;DHT22;997;48.448;8.924;2023-02-10T14:03:24;6.80;99.70
1992;DHT22;997;48.448;8.924;2023-02-10T14:11:05;6.80;99.70
1992;DHT22;997;48.448;8.924;2023-02-10T14:13:34;6.90;98.60
1992;DHT22;997;48.448;8.924;2023-02-10T14:18:58;6.70;98.80
1992;DHT22;997;48.448;8.924;2023-02-10T14:21:25;6.60;99.40
1992;DHT22;997;48.448;8.924;2023-02-10T14:23:55;6.70;99.90
1992;DHT22;997;48.448;8.924;2023-02-10T14:26:30;6.60;98.00
1992;DHT22;997;48.448;8.924;2023-02-10T14:28:58;6.70;99.90
1992;DHT22;997;48.448;8.924;2023-02-10T14:31:27;6.80;99.80
1992;DHT22;997;48.448;8.924;2023-02-10T14:33:57;6.90;99.00
1992;DHT22;997;48.448;8.924;2023-02-10T14:36:23;6.90;99.00
1992;DHT22;997;48.448;8.924;2023-02-10T14:38:51;6.90;96.80
1992;DHT22;997;48.448;8.924;2023-02-10T14:41:19;6.80;97.10
1992;DHT22;997;48.448;8.924;2023-02-10T14:43:45;6.90;99.40
1992;DHT22;997;48.448;8.924;2023-02-10T14:46:21;6.90;96.20
1992;DHT22;997;48.448;8.924;2023-02-10T14:48:48;7.00;98.50
1992;DHT22;997;48.448;8.924;2023-02-10T14:51:26;7.20;99.70
1992;DHT22;997;48.448;8.924;2023-02-10T14:53:52;7.30;98.70
1992;DHT22;997;48.448;8.924;2023-02-10T14:56:26;7.30;99.10
1992;DHT22;997;48.448;8.924;2023-02-10T14:58:52;7.20;99.60
1992;DHT22;997;48.448;8.924;2023-02-10T15:01:26;7.20;99.90
1992;DHT22;997;48.448;8.924;2023-02-10T15:03:55;7.20;98.70
1992;DHT22;997;48.448;8.924;2023-02-10T15:06:26;7.30;99.70
1992;DHT22;997;48.448;8.924;2023-02-10T15:09:17;7.40;99.80
1992;DHT22;997;48.448;8.924;2023-02-10T15:11:48;7.20;97.00
1992;DHT22;997;48.448;8.924;2023-02-10T15:14:36;7.10;96.50
1992;DHT22;997;48.448;8.924;2023-02-10T15:17:07;7.30;98.20
1992;DHT22;997;48.448;8.924;2023-02-10T15:19:36;7.20;96.40
1992;DHT22;997;48.448;8.924;2023-02-10T15:22:01;7.30;96.10
1992;DHT22;997;48.448;8.924;2023-02-10T15:24:32;7.30;96.90
1992;DHT22;997;48.448;8.924;2023-02-10T15:27:18;7.40;96.80
1992;DHT22;997;48.448;8.924;2023-02-10T15:29:47;7.40;97.50
1992;DHT22;997;48.448;8.924;2023-02-10T15:32:18;7.40;96.70
1992;DHT22;997;48.448;8.924;2023-02-10T15:34:44;7.50;96.10
1992;DHT22;997;48.448;8.924;2023-02-10T15:37:21;7.50;95.90
1992;DHT22;997;48.448;8.924;2023-02-10T15:39:57;7.60;95.90
1992;DHT22;997;48.448;8.924;2023-02-10T15:42:27;7.60;94.40
1992;DHT22;997;48.448;8.924;2023-02-10T15:45:14;7.40;95.00
1992;DHT22;997;48.448;8.924;2023-02-10T15:47:59;7.50;95.60
1992;DHT22;997;48.448;8.924;2023-02-10T15:50:25;7.60;95.70
1992;DHT22;997;48.448;8.924;2023-02-10T15:52:53;7.50;94.50
1992;DHT22;997;48.448;8.924;2023-02-10T15:55:40;7.40;94.60
1992;DHT22;997;48.448;8.924;2023-02-10T15:58:06;7.20;93.90
1992;DHT22;997;48.448;8.924;2023-02-10T16:00:34;7.30;94.50
1992;DHT22;997;48.448;8.924;2023-02-10T16:03:01;7.40;94.30
1992;DHT22;997;48.448;8.924;2023-02-10T16:05:27;7.50;95.20
1992;DHT22;997;48.448;8.924;2023-02-10T16:07:55;7.40;95.50
1992;DHT22;997;48.448;8.924;2023-02-10T16:10:25;7.50;95.80
1992;DHT22;997;48.448;8.924;2023-02-10T16:15:26;7.50;96.50
1992;DHT22;997;48.448;8.924;2023-02-10T16:17:58;7.50;96.60
1992;DHT22;997;48.448;8.924;2023-02-10T16:20:28;7.50;96.50
1992;DHT22;997;48.448;8.924;2023-02-10T16:22:54;7.40;96.10
1992;DHT22;997;48.448;8.924;2023-02-10T16:25:22;7.30;96.30
1992;DHT22;997;48.448;8.924;2023-02-10T16:27:48;7.30;96.50
1992;DHT22;997;48.448;8.924;2023-02-10T16:30:17;7.20;96.30
1992;DHT22;997;48.448;8.924;2023-02-10T16:32:43;7.10;96.50
1992;DHT22;997;48.448;8.924;2023-02-10T16:35:10;7.10;96.60
1992;DHT22;997;48.448;8.924;2023-02-10T16:37:35;7.00;96.50
1992;DHT22;997;48.448;8.924;2023-02-10T16:40:01;6.90;96.50
1992;DHT22;997;48.448;8.924;2023-02-10T16:42:27;6.80;96.70
1992;DHT22;997;48.448;8.924;2023-02-10T16:44:53;6.70;96.70
1992;DHT22;997;48.448;8.924;2023-02-10T16:47:20;6.60;97.00
1992;DHT22;997;48.448;8.924;2023-02-10T16:49:47;6.60;97.60
1992;DHT22;997;48.448;8.924;2023-02-10T16:52:14;6.50;97.70
1992;DHT22;997;48.448;8.924;2023-02-10T16:54:40;6.40;97.70
1992;DHT22;997;48.448;8.924;2023-02-10T16:57:06;6.20;97.30
1992;DHT22;997;48.448;8.924;2023-02-10T16:59:32;6.10;96.80
1992;DHT22;997;48.448;8.924;2023-02-10T17:01:58;6.10;97.10
1992;DHT22;997;48.448;8.924;2023-02-10T17:04:24;6.10;97.70
1992;DHT22;997;48.448;8.924;2023-02-10T17:06:51;6.00;97.60
1992;DHT22;997;48.448;8.924;2023-02-10T17:09:22;5.90;97.90
1992;DHT22;997;48.448;8.924;2023-02-10T17:11:49;5.80;97.70
1992;DHT22;997;48.448;8.924;2023-02-10T17:14:15;5.80;98.20
1992;DHT22;997;48.448;8.924;2023-02-10T17:16:46;5.70;99.00
1992;DHT22;997;48.448;8.924;2023-02-10T17:19:16;5.70;99.60
1992;DHT22;997;48.448;8.924;2023-02-10T17:21:42;5.60;99.90
1992;DHT22;997;48.448;8.924;2023-02-10T17:24:09;5.40;99.90
1992;DHT22;997;48.448;8.924;2023-02-10T17:26:35;5.10;98.90
1992;DHT22;997;48.448;8.924;2023-02-10T17:29:00;4.90;99.00
1992;DHT22;997;48.448;8.924;2023-02-10T17:31:26;4.80;99.50
1992;DHT22;997;48.448;8.924;2023-02-10T17:33:52;4.70;99.80
1992;DHT22;997;48.448;8.924;2023-02-10T17:36:23;4.60;99.90
1992;DHT22;997;48.448;8.924;2023-02-10T17:38:49;4.50;99.90
1992;DHT22;997;48.448;8.924;2023-02-10T17:41:21;4.40;99.90
1992;DHT22;997;48.448;8.924;2023-02-10T17:43:47;4.40;99.90
1992;DHT22;997;48.448;8.924;2023-02-10T17:46:15;4.50;99.90
1992;DHT22;997;48.448;8.924;2023-02-10T17:48:41;4.50;99.90
1992;DHT22;997;48.448;8.924;2023-02-10T17:51:10;4.50;99.90
1992;DHT22;997;48.448;8.924;2023-02-10T17:53:37;4.40;99.90
1992;DHT22;997;48.448;8.924;2023-02-10T17:56:03;4.30;99.90
1992;DHT22;997;48.448;8.924;2023-02-10T17:58:29;4.30;99.90
1992;DHT22;997;48.448;8.924;2023-02-10T18:00:55;4.30;99.90
1992;DHT22;997;48.448;8.924;2023-02-10T18:03:21;4.20;99.90
1992;DHT22;997;48.448;8.924;2023-02-10T18:05:46;4.20;99.90
1992;DHT22;997;48.448;8.924;2023-02-10T18:08:13;4.20;99.90
1992;DHT22;997;48.448;8.924;2023-02-10T18:10:39;4.10;99.90
1992;DHT22;997;48.448;8.924;2023-02-10T18:13:06;4.00;99.90
1992;DHT22;997;48.448;8.924;2023-02-10T18:15:32;4.10;99.90
1992;DHT22;997;48.448;8.924;2023-02-10T18:17:58;4.10;99.90
1992;DHT22;997;48.448;8.924;2023-02-10T18:20:24;4.20;99.90
1992;DHT22;997;48.448;8.924;2023-02-10T18:22:50;4.10;99.90
1992;DHT22;997;48.448;8.924;2023-02-10T18:25:16;4.10;99.90
1992;DHT22;997;48.448;8.924;2023-02-10T18:27:42;4.00;99.90
1992;DHT22;997;48.448;8.924;2023-02-10T18:30:09;3.80;99.90
1992;DHT22;997;48.448;8.924;2023-02-10T18:32:35;3.50;99.90
1992;DHT22;997;48.448;8.924;2023-02-10T18:35:02;3.60;99.90
1992;DHT22;997;48.448;8.924;2023-02-10T18:37:27;3.50;99.90
1992;DHT22;997;48.448;8.924;2023-02-10T18:39:53;3.40;99.90
1992;DHT22;997;48.448;8.924;2023-02-10T18:42:22;3.40;99.90
1992;DHT22;997;48.448;8.924;2023-02-10T18:44:47;3.50;99.90
1992;DHT22;997;48.448;8.924;2023-02-10T18:47:13;3.50;99.90
1992;DHT22;997;48.448;8.924;2023-02-10T18:49:39;3.60;99.90
1992;DHT22;997;48.448;8.924;2023-02-10T18:52:04;3.60;99.90
1992;DHT22;997;48.448;8.924;2023-02-10T18:54:30;3.60;99.90
1992;DHT22;997;48.448;8.924;2023-02-10T18:56:56;3.60;99.90
1992;DHT22;997;48.448;8.924;2023-02-10T18:59:22;3.50;99.90
1992;DHT22;997;48.448;8.924;2023-02-10T19:01:50;3.50;99.90
1992;DHT22;997;48.448;8.924;2023-02-10T19:04:16;3.40;99.90
1992;DHT22;997;48.448;8.924;2023-02-10T19:06:43;3.40;99.90
1992;DHT22;997;48.448;8.924;2023-02-10T19:09:09;3.50;99.90
1992;DHT22;997;48.448;8.924;2023-02-10T19:11:34;3.50;99.90
1992;DHT22;997;48.448;8.924;2023-02-10T19:14:00;3.50;99.90
1992;DHT22;997;48.448;8.924;2023-02-10T19:16:26;3.50;99.90
1992;DHT22;997;48.448;8.924;2023-02-10T19:18:52;3.50;99.90
1992;DHT22;997;48.448;8.924;2023-02-10T19:21:18;3.40;99.90
1992;DHT22;997;48.448;8.924;2023-02-10T19:23:45;3.40;99.90
1992;DHT22;997;48.448;8.924;2023-02-10T19:26:12;3.30;99.90
1992;DHT22;997;48.448;8.924;2023-02-10T19:28:38;3.30;99.90
1992;DHT22;997;48.448;8.924;2023-02-10T19:31:08;3.30;99.90
1992;DHT22;997;48.448;8.924;2023-02-10T19:33:34;3.30;99.90
1992;DHT22;997;48.448;8.924;2023-02-10T19:36:00;3.20;99.90
1992;DHT22;997;48.448;8.924;2023-02-10T19:38:26;3.20;99.90
1992;DHT22;997;48.448;8.924;2023-02-10T19:43:30;3.00;99.90
1992;DHT22;997;48.448;8.924;2023-02-10T19:45:56;3.00;99.90
1992;DHT22;997;48.448;8.924;2023-02-10T19:48:22;2.90;99.90
1992;DHT22;997;48.448;8.924;2023-02-10T19:50:47;2.80;99.90
1992;DHT22;997;48.448;8.924;2023-02-10T19:53:13;2.80;99.90
1992;DHT22;997;48.448;8.924;2023-02-10T19:55:39;2.70;99.90
1992;DHT22;997;48.448;8.924;2023-02-10T19:58:04;2.60;99.90
1992;DHT22;997;48.448;8.924;2023-02-10T20:00:31;2.50;99.90
1992;DHT22;997;48.448;8.924;2023-02-10T20:02:56;2.20;99.90
1992;DHT22;997;48.448;8.924;2023-02-10T20:05:22;2.00;99.90
1992;DHT22;997;48.448;8.924;2023-02-10T20:07:48;1.80;99.90
1992;DHT22;997;48.448;8.924;2023-02-10T20:10:14;1.60;99.90
1992;DHT22;997;48.448;8.924;2023-02-10T20:12:40;1.50;99.90
1992;DHT22;997;48.448;8.924;2023-02-10T20:15:06;1.60;99.90
1992;DHT22;997;48.448;8.924;2023-02-10T20:17:32;1.50;99.90
1992;DHT22;997;48.448;8.924;2023-02-10T20:19:57;1.50;99.90
1992;DHT22;997;48.448;8.924;2023-02-10T20:22:23;1.60;99.90
1992;DHT22;997;48.448;8.924;2023-02-10T20:24:48;1.50;99.90
1992;DHT22;997;48.448;8.924;2023-02-10T20:27:14;1.50;99.90
1992;DHT22;997;48.448;8.924;2023-02-10T20:29:40;1.40;99.90
1992;DHT22;997;48.448;8.924;2023-02-10T20:32:05;1.40;99.90
1992;DHT22;997;48.448;8.924;2023-02-10T20:34:33;1.40;99.90
1992;DHT22;997;48.448;8.924;2023-02-10T20:36:59;1.40;99.90
1992;DHT22;997;48.448;8.924;2023-02-10T20:39:25;1.40;99.90
1992;DHT22;997;48.448;8.924;2023-02-10T20:41:50;1.40;99.90
1992;DHT22;997;48.448;8.924;2023-02-10T21:12:45;0.80;99.90
1992;DHT22;997;48.448;8.924;2023-02-10T21:15:12;0.80;99.90
1992;DHT22;997;48.448;8.924;2023-02-10T21:17:38;0.80;99.90
1992;DHT22;997;48.448;8.924;2023-02-10T21:20:05;0.60;99.90
1992;DHT22;997;48.448;8.924;2023-02-10T21:22:31;0.50;99.90
1992;DHT22;997;48.448;8.924;2023-02-10T21:25:00;0.60;99.90
1992;DHT22;997;48.448;8.924;2023-02-10T21:27:26;0.70;99.90
1992;DHT22;997;48.448;8.924;2023-02-10T21:29:53;0.80;99.90
1992;DHT22;997;48.448;8.924;2023-02-10T21:32:19;0.90;99.90
1992;DHT22;997;48.448;8.924;2023-02-10T21:34:45;0.90;99.90
1992;DHT22;997;48.448;8.924;2023-02-10T21:37:11;1.00;99.90
1992;DHT22;997;48.448;8.924;2023-02-10T21:39:37;0.90;99.90
1992;DHT22;997;48.448;8.924;2023-02-10T21:42:03;0.80;99.90
1992;DHT22;997;48.448;8.924;2023-02-10T21:44:29;0.80;99.90
1992;DHT22;997;48.448;8.924;2023-02-10T21:47:00;0.80;99.90
1992;DHT22;997;48.448;8.924;2023-02-10T21:49:30;0.70;99.90
1992;DHT22;997;48.448;8.924;2023-02-10T21:51:57;0.70;99.90
1992;DHT22;997;48.448;8.924;2023-02-10T21:54:25;0.60;99.90
1992;DHT22;997;48.448;8.924;2023-02-10T21:56:51;0.60;99.90
1992;DHT22;997;48.448;8.924;2023-02-10T21:59:19;0.60;99.90
1992;DHT22;997;48.448;8.924;2023-02-10T22:01:45;0.60;99.90
1992;DHT22;997;48.448;8.924;2023-02-10T22:04:11;0.60;99.90
1992;DHT22;997;48.448;8.924;2023-02-10T22:06:39;0.50;99.90
1992;DHT22;997;48.448;8.924;2023-02-10T22:09:07;0.50;99.90
1992;DHT22;997;48.448;8.924;2023-02-10T22:11:34;0.40;99.90
1992;DHT22;997;48.448;8.924;2023-02-10T22:14:00;0.40;99.90
1992;DHT22;997;48.448;8.924;2023-02-10T22:16:26;0.40;99.90
1992;DHT22;997;48.448;8.924;2023-02-10T22:18:52;0.30;99.90
1992;DHT22;997;48.448;8.924;2023-02-10T22:21:22;0.20;99.90
1992;DHT22;997;48.448;8.924;2023-02-10T22:23:50;0.20;99.90
1992;DHT22;997;48.448;8.924;2023-02-10T22:26:17;0.30;99.90
1992;DHT22;997;48.448;8.924;2023-02-10T22:28:44;0.30;99.90
